createdAt,value
2022-10-04T00:00:07.729Z,1022.8
2022-10-04T00:05:08.308Z,1022.93
2022-10-04T00:10:08.054Z,1022.91
2022-10-04T00:15:17.743Z,1022.89
2022-10-04T00:20:08.456Z,1022.89
2022-10-04T00:25:08.167Z,1022.89
2022-10-04T00:30:07.835Z,1022.85
2022-10-04T00:35:08.550Z,1022.84
2022-10-04T00:40:08.263Z,1022.77
2022-10-04T00:45:07.914Z,1022.75
2022-10-04T00:50:08.696Z,1022.73
2022-10-04T00:55:08.373Z,1022.59
2022-10-04T01:00:08.053Z,1022.5
2022-10-04T01:05:07.746Z,1022.43
2022-10-04T01:10:08.437Z,1022.45
2022-10-04T01:15:08.122Z,1022.27
2022-10-04T01:20:07.839Z,1022.24
2022-10-04T01:25:08.544Z,1022.31
2022-10-04T01:30:08.252Z,1022.36
2022-10-04T01:35:07.963Z,1022.21
2022-10-04T01:40:07.851Z,1022.12
2022-10-04T01:45:08.561Z,1022.07
2022-10-04T01:50:11.388Z,1021.95
2022-10-04T01:55:08.258Z,1021.83
2022-10-04T02:00:07.971Z,1021.8
2022-10-04T02:05:07.724Z,1021.78
2022-10-04T02:10:08.450Z,1021.79
2022-10-04T02:15:08.143Z,1021.73
2022-10-04T02:20:07.883Z,1021.79
2022-10-04T02:25:08.604Z,1021.79
2022-10-04T02:30:08.319Z,1021.78
2022-10-04T02:35:08.000Z,1021.72
2022-10-04T02:40:07.746Z,1021.39
2022-10-04T02:45:08.457Z,1021.39
2022-10-04T02:50:08.157Z,1021.23
2022-10-04T02:55:17.241Z,1021.34
2022-10-04T03:00:07.991Z,1021.3
2022-10-04T03:05:10.122Z,1021.14
2022-10-04T03:10:10.103Z,1021.2
2022-10-04T03:15:07.831Z,1021.03
2022-10-04T03:20:08.553Z,1021.11
2022-10-04T03:25:08.260Z,1021.07
2022-10-04T03:30:11.622Z,1020.99
2022-10-04T03:35:08.303Z,1020.91
2022-10-04T03:40:08.140Z,1020.99
2022-10-04T03:45:07.894Z,1020.9
2022-10-04T03:50:18.576Z,1021.04
2022-10-04T03:55:08.312Z,1021.04
2022-10-04T04:00:08.096Z,1020.92
2022-10-04T04:05:01.856Z,1020.96
2022-10-04T04:10:02.613Z,1020.84
2022-10-04T04:15:02.446Z,1020.78
2022-10-04T04:20:06.168Z,1020.81
2022-10-04T04:25:02.108Z,1020.71
2022-10-04T04:30:01.983Z,1020.63
2022-10-04T04:35:05.915Z,1020.63
2022-10-04T04:40:12.947Z,1020.55
2022-10-04T04:45:01.868Z,1020.46
2022-10-04T04:50:02.663Z,1020.57
2022-10-04T04:55:02.531Z,1020.5
2022-10-04T05:00:02.327Z,1020.52
2022-10-04T05:05:02.168Z,1020.52
2022-10-04T05:10:02.007Z,1020.49
2022-10-04T05:15:01.800Z,1020.45
2022-10-04T05:20:02.853Z,1020.4
2022-10-04T05:25:02.744Z,1020.4
2022-10-04T05:30:02.641Z,1020.38
2022-10-04T05:35:02.543Z,1020.42
2022-10-04T05:40:12.463Z,1020.45
2022-10-04T05:45:02.317Z,1020.39
2022-10-04T05:50:02.228Z,1020.4
2022-10-04T05:55:02.176Z,1020.5
2022-10-04T06:00:04.570Z,1020.55
2022-10-04T06:05:02.536Z,1020.64
2022-10-04T06:10:02.356Z,1020.71
2022-10-04T06:15:04.405Z,1020.65
2022-10-04T06:20:02.251Z,1020.6
2022-10-04T06:25:02.084Z,1020.58
2022-10-04T06:30:01.916Z,1020.58
2022-10-04T06:35:02.850Z,1020.59
2022-10-04T06:40:02.695Z,1020.67
2022-10-04T06:45:12.453Z,1020.72
2022-10-04T06:50:02.242Z,1020.77
2022-10-04T06:55:02.064Z,1020.67
2022-10-04T07:00:01.859Z,1020.72
2022-10-04T07:05:08.493Z,1020.73
2022-10-04T07:10:02.584Z,1020.79
2022-10-04T07:15:02.483Z,1020.79
2022-10-04T07:20:02.220Z,1020.78
2022-10-04T07:25:02.068Z,1020.75
2022-10-04T07:30:01.862Z,1020.73
2022-10-04T07:35:02.776Z,1020.73
2022-10-04T07:40:02.602Z,1020.76
2022-10-04T07:45:02.374Z,1020.73
2022-10-04T07:50:02.102Z,1020.78
2022-10-04T07:55:01.965Z,1020.78
2022-10-04T08:00:01.766Z,1020.77
2022-10-04T08:05:02.635Z,1020.8
2022-10-04T08:10:02.643Z,1020.71
2022-10-04T08:15:02.480Z,1020.68
2022-10-04T08:20:02.449Z,1020.58
2022-10-04T08:25:02.350Z,1020.58
2022-10-04T08:30:02.308Z,1020.43
2022-10-04T08:35:02.223Z,1020.53
2022-10-04T08:40:02.165Z,1020.47
2022-10-04T08:45:01.965Z,1020.43
2022-10-04T08:50:01.783Z,1020.39
2022-10-04T08:55:02.568Z,1020.27
2022-10-04T09:00:12.374Z,1020.48
2022-10-04T09:05:02.211Z,1020.5
2022-10-04T09:10:02.052Z,1020.55
2022-10-04T09:15:01.863Z,1020.63
2022-10-04T09:20:26.401Z,1020.6
2022-10-04T09:25:02.668Z,1020.43
2022-10-04T09:30:02.464Z,1020.41
2022-10-04T09:35:02.301Z,1020.38
2022-10-04T09:40:12.200Z,1020.27
2022-10-04T09:45:01.985Z,1020.29
2022-10-04T09:50:01.799Z,1020.31
2022-10-04T09:55:02.632Z,1020.31
2022-10-04T10:00:02.358Z,1020.3
2022-10-04T10:05:02.309Z,1020.33
2022-10-04T10:10:02.125Z,1020.26
2022-10-04T10:15:01.948Z,1020.13
2022-10-04T10:20:01.783Z,1020.18
2022-10-04T10:25:02.551Z,1020.15
2022-10-04T10:30:05.224Z,1020.12
2022-10-04T10:35:01.976Z,1020.07
2022-10-04T10:40:01.808Z,1020.08
2022-10-04T10:45:02.722Z,1020.07
2022-10-04T10:50:02.611Z,1020.12
2022-10-04T10:55:02.531Z,1020.01
2022-10-04T11:00:02.467Z,1020.0
2022-10-04T11:05:02.382Z,1019.95
2022-10-04T11:10:02.404Z,1019.82
2022-10-04T11:15:12.236Z,1019.78
2022-10-04T11:20:02.305Z,1019.82
2022-10-04T11:25:02.140Z,1019.78
2022-10-04T11:30:01.942Z,1019.92
2022-10-04T11:35:01.765Z,1019.75
2022-10-04T11:40:02.629Z,1019.59
2022-10-04T11:45:02.467Z,1019.62
2022-10-04T11:50:02.367Z,1019.63
2022-10-04T11:55:02.332Z,1019.4
2022-10-04T12:00:02.159Z,1019.33
2022-10-04T12:05:02.005Z,1019.27
2022-10-04T12:10:01.931Z,1019.29
2022-10-04T12:15:02.736Z,1019.14
2022-10-04T12:20:02.607Z,1019.13
2022-10-04T12:25:02.535Z,1018.97
2022-10-04T12:30:09.843Z,1019.04
2022-10-04T12:35:02.605Z,1019.03
2022-10-04T12:40:02.511Z,1018.97
2022-10-04T12:45:02.339Z,1018.9
2022-10-04T12:50:02.175Z,1018.88
2022-10-04T12:55:02.106Z,1018.76
2022-10-04T13:00:01.913Z,1018.62
2022-10-04T13:05:02.800Z,1018.55
2022-10-04T13:10:24.535Z,1018.47
2022-10-04T13:15:02.046Z,1018.34
2022-10-04T13:20:01.866Z,1018.34
2022-10-04T13:25:02.911Z,1018.35
2022-10-04T13:30:02.845Z,1018.3
2022-10-04T13:35:02.788Z,1018.3
2022-10-04T13:40:02.758Z,1018.27
2022-10-04T13:45:12.723Z,1018.26
2022-10-04T13:50:02.793Z,1018.32
2022-10-04T13:55:02.680Z,1018.31
2022-10-04T14:00:02.591Z,1018.24
2022-10-04T14:05:05.700Z,1018.15
2022-10-04T14:10:02.229Z,1018.18
2022-10-04T14:15:02.161Z,1018.16
2022-10-04T14:20:02.071Z,1017.97
2022-10-04T14:25:01.887Z,1017.99
2022-10-04T14:30:02.632Z,1017.74
2022-10-04T14:35:02.445Z,1017.74
2022-10-04T14:40:02.274Z,1017.74
2022-10-04T14:45:02.140Z,1017.76
2022-10-04T14:50:01.973Z,1017.71
2022-10-04T14:55:04.347Z,1017.64
2022-10-04T15:00:02.314Z,1017.56
2022-10-04T15:05:02.209Z,1017.62
2022-10-04T15:10:01.986Z,1017.67
2022-10-04T15:15:01.826Z,1017.73
2022-10-04T15:20:02.662Z,1017.69
2022-10-04T15:25:02.486Z,1017.65
2022-10-04T15:30:12.261Z,1017.79
2022-10-04T15:35:02.003Z,1017.76
2022-10-04T15:40:01.787Z,1017.79
2022-10-04T15:45:02.616Z,1017.74
2022-10-04T15:50:02.427Z,1017.65
2022-10-04T15:55:03.118Z,1017.69
2022-10-04T16:00:01.882Z,1017.6
2022-10-04T16:05:02.647Z,1017.6
2022-10-04T16:10:02.502Z,1017.7
2022-10-04T16:15:02.494Z,1017.65
2022-10-04T16:20:02.404Z,1017.73
2022-10-04T16:25:02.282Z,1017.75
2022-10-04T16:30:25.515Z,1017.67
2022-10-04T16:35:04.081Z,1017.65
2022-10-04T16:40:11.949Z,1017.59
2022-10-04T16:45:01.918Z,1017.57
2022-10-04T16:50:02.712Z,1017.58
2022-10-04T16:55:02.458Z,1017.65
2022-10-04T17:00:02.299Z,1017.76
2022-10-04T17:05:02.140Z,1017.75
2022-10-04T17:10:01.934Z,1017.82
2022-10-04T17:15:12.682Z,1017.83
2022-10-04T17:20:02.539Z,1017.81
2022-10-04T17:25:02.374Z,1017.96
2022-10-04T17:30:02.193Z,1018.0
2022-10-04T17:35:02.025Z,1017.92
2022-10-04T17:40:06.520Z,1018.08
2022-10-04T17:45:02.378Z,1018.1
2022-10-04T17:50:02.329Z,1018.16
2022-10-04T17:55:02.167Z,1018.21
2022-10-04T18:00:02.016Z,1018.09
2022-10-04T18:05:01.794Z,1018.17
2022-10-04T18:10:02.694Z,1018.06
2022-10-04T18:15:02.479Z,1018.01
2022-10-04T18:20:02.330Z,1018.03
2022-10-04T18:25:02.160Z,1018.14
2022-10-04T18:30:01.956Z,1018.17
2022-10-04T18:35:01.686Z,1018.18
2022-10-04T18:40:02.452Z,1018.15
2022-10-04T18:45:02.298Z,1018.07
2022-10-04T18:50:02.195Z,1017.9
2022-10-04T18:55:02.055Z,1017.89
2022-10-04T19:00:01.959Z,1017.82
2022-10-04T19:05:01.773Z,1017.77
2022-10-04T19:10:02.767Z,1017.88
2022-10-04T19:15:02.681Z,1017.88
2022-10-04T19:20:02.735Z,1018.01
2022-10-04T19:25:02.675Z,1018.16
2022-10-04T19:30:02.671Z,1018.07
2022-10-04T19:35:02.504Z,1018.07
2022-10-04T19:40:02.357Z,1018.07
2022-10-04T19:45:02.159Z,1017.92
2022-10-04T19:50:01.962Z,1018.01
2022-10-04T19:55:11.820Z,1017.92
2022-10-04T20:00:02.690Z,1017.91
2022-10-04T20:05:02.485Z,1017.84
2022-10-04T20:10:02.353Z,1017.77
2022-10-04T20:15:02.462Z,1017.74
2022-10-04T20:20:02.411Z,1017.54
2022-10-04T20:25:02.455Z,1017.51
2022-10-04T20:30:02.351Z,1017.46
2022-10-04T20:35:14.988Z,1017.47
2022-10-04T20:40:07.697Z,1017.63
2022-10-04T20:45:08.466Z,1017.61
2022-10-04T20:50:08.150Z,1017.72
2022-10-04T20:55:07.849Z,1017.61
2022-10-04T21:00:08.543Z,1017.66
2022-10-04T21:05:08.209Z,1017.68
2022-10-04T21:10:07.904Z,1017.62
2022-10-04T21:15:08.602Z,1017.57
2022-10-04T21:20:08.314Z,1017.62
2022-10-04T21:25:08.001Z,1017.63
2022-10-04T21:30:07.674Z,1017.71
2022-10-04T21:35:08.358Z,1017.66
2022-10-04T21:40:08.073Z,1017.68
2022-10-04T21:45:07.785Z,1017.71
2022-10-04T21:50:08.481Z,1017.65
2022-10-04T21:55:08.173Z,1017.6
2022-10-04T22:00:07.905Z,1017.6
2022-10-04T22:05:08.610Z,1017.59
2022-10-04T22:10:08.352Z,1017.63
2022-10-04T22:15:08.039Z,1017.76
2022-10-04T22:20:07.756Z,1017.76
2022-10-04T22:25:08.460Z,1017.76
2022-10-04T22:30:08.159Z,1017.73
2022-10-04T22:35:07.856Z,1017.57
2022-10-04T22:40:08.560Z,1017.59
2022-10-04T22:45:08.258Z,1017.47
2022-10-04T22:50:07.905Z,1017.55
2022-10-04T22:55:08.630Z,1017.55
2022-10-04T23:01:01.488Z,1017.53
2022-10-04T23:05:17.543Z,1017.47
2022-10-04T23:10:07.920Z,1017.4
2022-10-04T23:15:08.624Z,1017.39
2022-10-04T23:20:18.302Z,1017.31
2022-10-04T23:25:08.009Z,1017.31
2022-10-04T23:30:07.702Z,1017.27
2022-10-04T23:35:08.451Z,1017.1
2022-10-04T23:40:08.136Z,1017.03
2022-10-04T23:45:07.798Z,1016.99
2022-10-04T23:50:08.488Z,1016.96
2022-10-04T23:55:08.209Z,1017.0
